Time;durP1;ratioP1;P1;durP2;ratioP2;P2;SDS_P1;SDS_P2;PMS_P1;PMS_P2;Temp;Humidity;BMP_temperature;BMP_pressure;BME280_temperature;BME280_humidity;BME280_pressure;Samples;Min_cycle;Max_cycle;Signal;HPM_P1;HPM_P2
2023/07/29 00:02:04;;;;;;;4.18;3.70;;;16.20;99.90;;;;;;4987405;28;20273;-93
2023/07/29 00:04:31;;;;;;;4.35;3.30;;;16.30;99.90;;;;;;4956639;28;20753;-91
2023/07/29 00:06:58;;;;;;;4.13;3.20;;;16.50;99.90;;;;;;4985458;28;20201;-93
2023/07/29 00:09:25;;;;;;;4.75;3.55;;;16.50;99.90;;;;;;4956281;29;20284;-94
2023/07/29 00:11:52;;;;;;;3.80;3.20;;;16.40;99.90;;;;;;4982818;28;20268;-93
2023/07/29 00:14:19;;;;;;;4.30;2.92;;;16.30;99.90;;;;;;4983276;28;20690;-93
2023/07/29 00:16:47;;;;;;;3.33;2.97;;;16.20;99.90;;;;;;4987653;28;20196;-93
2023/07/29 00:19:14;;;;;;;4.32;3.38;;;16.20;99.90;;;;;;4980615;28;20231;-93
2023/07/29 00:21:41;;;;;;;4.20;3.28;;;16.10;99.90;;;;;;4973489;28;20232;-93
2023/07/29 00:24:11;;;;;;;3.35;3.05;;;16.10;99.90;;;;;;4986818;28;20211;-94
2023/07/29 00:26:38;;;;;;;3.25;2.95;;;16.10;99.90;;;;;;4985773;28;20211;-94
2023/07/29 00:29:05;;;;;;;5.38;3.08;;;16.10;99.90;;;;;;4980673;28;20292;-93
2023/07/29 00:31:32;;;;;;;4.57;3.25;;;16.00;99.90;;;;;;4967442;29;20273;-93
2023/07/29 00:34:00;;;;;;;5.45;3.17;;;16.00;99.90;;;;;;4967060;28;20236;-94
2023/07/29 00:36:27;;;;;;;3.72;2.95;;;16.00;99.90;;;;;;4971724;28;20217;-94
2023/07/29 00:38:57;;;;;;;3.47;3.17;;;16.10;99.90;;;;;;4959462;28;20580;-94
2023/07/29 00:41:24;;;;;;;4.28;3.13;;;16.10;99.90;;;;;;4985947;28;20197;-94
2023/07/29 00:43:51;;;;;;;3.20;2.90;;;16.10;99.90;;;;;;4964231;28;20226;-94
2023/07/29 00:46:19;;;;;;;5.20;3.10;;;16.10;99.90;;;;;;4985725;28;20207;-93
2023/07/29 00:48:46;;;;;;;3.33;3.03;;;16.10;99.90;;;;;;4985723;28;20217;-94
2023/07/29 00:51:14;;;;;;;6.18;3.20;;;16.10;99.90;;;;;;4966568;28;20232;-93
2023/07/29 00:53:41;;;;;;;4.22;3.47;;;16.20;99.90;;;;;;4968871;28;20205;-94
2023/07/29 00:56:08;;;;;;;4.18;3.25;;;16.30;99.90;;;;;;4985787;28;20207;-91
2023/07/29 00:58:35;;;;;;;3.33;3.03;;;16.40;99.90;;;;;;4977562;28;20235;-95
2023/07/29 01:01:02;;;;;;;4.00;3.20;;;16.40;99.90;;;;;;4981694;28;20204;-95
2023/07/29 01:03:29;;;;;;;3.75;3.20;;;16.30;99.90;;;;;;4962193;28;20193;-95
2023/07/29 01:06:08;;;;;;;3.80;2.90;;;16.30;99.90;;;;;;4984815;28;20208;-94
2023/07/29 01:11:54;;;;;;;5.13;3.05;;;16.10;99.90;;;;;;4973976;28;20204;-93
2023/07/29 01:14:30;;;;;;;4.47;3.20;;;16.10;99.90;;;;;;4959301;28;20212;-94
2023/07/29 01:19:56;;;;;;;3.67;2.90;;;16.10;99.90;;;;;;4966418;28;20196;-93
2023/07/29 01:22:25;;;;;;;3.90;3.10;;;16.10;99.90;;;;;;4963536;29;20289;-94
2023/07/29 01:25:03;;;;;;;3.67;3.35;;;16.00;99.90;;;;;;4981479;28;20259;-93
2023/07/29 01:27:30;;;;;;;5.47;3.45;;;15.90;99.90;;;;;;4983526;28;20206;-94
2023/07/29 01:29:58;;;;;;;4.20;3.10;;;15.90;99.90;;;;;;4962165;28;20228;-94
2023/07/29 01:32:30;;;;;;;4.95;3.17;;;15.80;99.90;;;;;;4973235;28;20209;-94
2023/07/29 01:35:03;;;;;;;3.30;2.85;;;15.80;99.90;;;;;;4977548;28;20197;-95
2023/07/29 01:37:34;;;;;;;6.25;2.97;;;15.80;99.90;;;;;;4973280;28;20207;-94
2023/07/29 01:42:45;;;;;;;6.72;2.95;;;15.60;99.90;;;;;;4974858;28;20221;-93
2023/07/29 01:45:12;;;;;;;4.18;3.35;;;15.60;99.90;;;;;;4974057;28;20212;-94
2023/07/29 01:47:41;;;;;;;3.88;3.30;;;15.60;99.90;;;;;;4950182;28;20211;-94
2023/07/29 01:50:11;;;;;;;5.07;3.08;;;15.60;99.90;;;;;;4963491;28;20228;-94
2023/07/29 01:52:40;;;;;;;5.68;3.30;;;15.60;99.90;;;;;;4973738;28;20192;-94
2023/07/29 01:57:51;;;;;;;3.13;2.80;;;15.50;99.90;;;;;;4967885;28;20226;-95
2023/07/29 02:00:18;;;;;;;3.45;2.90;;;15.50;99.90;;;;;;4979400;28;20220;-93
2023/07/29 02:02:46;;;;;;;4.00;3.17;;;15.50;99.90;;;;;;4965806;28;20200;-93
2023/07/29 02:05:13;;;;;;;3.85;2.92;;;15.50;99.90;;;;;;4950188;28;20212;-94
2023/07/29 02:07:40;;;;;;;3.33;2.97;;;15.50;99.90;;;;;;4978041;28;20236;-94
2023/07/29 02:12:50;;;;;;;5.75;3.30;;;15.60;99.90;;;;;;4982971;28;20205;-94
2023/07/29 02:15:17;;;;;;;3.00;2.80;;;15.60;99.90;;;;;;4977044;28;20646;-95
2023/07/29 02:17:44;;;;;;;5.32;3.22;;;15.50;99.90;;;;;;4974283;28;20228;-94
2023/07/29 02:20:12;;;;;;;3.45;3.15;;;15.50;99.90;;;;;;4962509;28;20208;-94
2023/07/29 02:22:39;;;;;;;4.93;3.17;;;15.50;99.90;;;;;;4963571;28;20205;-93
2023/07/29 02:25:11;;;;;;;5.95;2.92;;;15.50;99.90;;;;;;4977743;28;20200;-94
2023/07/29 02:27:38;;;;;;;4.45;2.88;;;15.50;99.90;;;;;;4975811;28;20208;-92
2023/07/29 02:30:06;;;;;;;4.93;3.20;;;15.50;99.90;;;;;;4976749;28;20220;-94
2023/07/29 02:32:33;;;;;;;4.28;3.00;;;15.40;99.90;;;;;;4978498;28;20304;-92
2023/07/29 02:35:00;;;;;;;3.83;3.25;;;15.40;99.90;;;;;;4969959;28;20209;-94
2023/07/29 02:37:27;;;;;;;5.05;3.17;;;15.30;99.90;;;;;;4960935;28;20212;-92
2023/07/29 02:39:56;;;;;;;5.43;3.08;;;15.30;99.90;;;;;;4958052;28;20641;-94
2023/07/29 02:42:26;;;;;;;3.00;2.80;;;15.30;99.90;;;;;;4962905;28;20209;-95
2023/07/29 02:44:53;;;;;;;4.13;3.03;;;15.30;99.90;;;;;;4962462;28;20215;-94
2023/07/29 02:50:01;;;;;;;3.65;2.90;;;15.40;99.90;;;;;;4983303;28;20244;-93
2023/07/29 02:52:28;;;;;;;3.75;3.28;;;15.40;99.90;;;;;;4966741;28;20540;-92
2023/07/29 02:54:55;;;;;;;4.88;3.40;;;15.30;99.90;;;;;;4968678;28;20202;-93
2023/07/29 02:57:22;;;;;;;3.92;2.95;;;15.30;99.90;;;;;;4961716;28;20204;-94
2023/07/29 02:59:50;;;;;;;3.15;2.85;;;15.20;99.90;;;;;;4981470;28;20673;-91
2023/07/29 03:02:17;;;;;;;4.35;3.30;;;15.30;99.90;;;;;;4982326;28;20572;-93
2023/07/29 03:04:44;;;;;;;3.83;3.05;;;15.40;99.90;;;;;;4959265;28;20204;-94
2023/07/29 03:07:11;;;;;;;5.00;2.75;;;15.40;99.90;;;;;;4968709;28;20209;-93
2023/07/29 03:09:39;;;;;;;3.75;3.10;;;15.30;99.90;;;;;;4961932;28;20220;-94
2023/07/29 03:12:06;;;;;;;3.20;2.88;;;15.30;99.90;;;;;;4983966;28;20208;-93
2023/07/29 03:14:33;;;;;;;3.53;2.92;;;15.30;99.90;;;;;;4982240;28;20208;-93
2023/07/29 03:17:04;;;;;;;4.20;2.95;;;15.30;99.90;;;;;;4949924;28;20274;-95
2023/07/29 03:19:30;;;;;;;6.00;3.05;;;15.40;99.90;;;;;;4984738;28;20248;-95
2023/07/29 03:21:57;;;;;;;3.65;3.10;;;15.30;99.90;;;;;;4979807;28;20200;-93
2023/07/29 03:24:24;;;;;;;5.50;2.92;;;15.30;99.90;;;;;;4984878;28;20223;-91
2023/07/29 03:26:54;;;;;;;4.38;2.88;;;15.40;99.90;;;;;;4978994;28;20296;-96
2023/07/29 03:29:21;;;;;;;3.47;2.80;;;15.40;99.90;;;;;;4949779;28;20220;-94
2023/07/29 03:31:48;;;;;;;3.88;3.30;;;15.40;99.90;;;;;;4983847;28;20221;-93
2023/07/29 03:34:31;;;;;;;5.03;3.03;;;15.30;99.90;;;;;;4979666;28;20212;-93
2023/07/29 03:36:58;;;;;;;3.45;3.00;;;15.30;99.90;;;;;;4974995;28;20216;-93
2023/07/29 03:39:26;;;;;;;3.75;3.10;;;15.30;99.90;;;;;;4979383;28;20200;-93
2023/07/29 03:41:52;;;;;;;3.70;3.25;;;15.30;99.90;;;;;;4963307;28;20213;-95
2023/07/29 03:44:19;;;;;;;3.35;2.85;;;15.30;99.90;;;;;;4982065;28;20219;-92
2023/07/29 03:46:46;;;;;;;3.20;2.90;;;15.30;99.90;;;;;;4978704;28;20207;-95
2023/07/29 03:49:13;;;;;;;4.55;2.72;;;15.40;99.90;;;;;;4981731;28;20225;-94
2023/07/29 03:51:42;;;;;;;3.55;2.78;;;15.40;99.90;;;;;;4980626;28;20215;-93
2023/07/29 03:54:08;;;;;;;4.95;3.08;;;15.40;99.90;;;;;;4977880;28;20452;-94
2023/07/29 03:56:36;;;;;;;5.55;3.05;;;15.40;99.90;;;;;;4976208;28;20209;-93
2023/07/29 03:59:04;;;;;;;5.50;2.92;;;15.50;99.90;;;;;;4981863;28;20212;-94
2023/07/29 04:01:31;;;;;;;3.17;2.90;;;15.50;99.90;;;;;;4986222;28;20227;-94
2023/07/29 04:03:59;;;;;;;6.07;2.85;;;15.50;99.90;;;;;;4981351;28;20200;-93
2023/07/29 04:06:26;;;;;;;4.68;2.72;;;15.50;99.90;;;;;;4989336;28;20208;-94
2023/07/29 04:08:56;;;;;;;5.03;3.03;;;15.60;99.90;;;;;;4968626;28;20232;-93
2023/07/29 04:11:24;;;;;;;3.13;2.47;;;15.60;99.90;;;;;;4980377;28;20224;-94
2023/07/29 04:13:51;;;;;;;3.30;2.40;;;15.60;99.90;;;;;;4980692;28;20223;-93
2023/07/29 04:16:18;;;;;;;3.33;2.70;;;15.70;99.90;;;;;;4964869;28;20208;-94
2023/07/29 04:18:44;;;;;;;3.80;2.63;;;15.70;99.90;;;;;;4986142;28;20225;-93
2023/07/29 04:21:12;;;;;;;2.78;2.58;;;15.70;99.90;;;;;;4982259;28;20204;-95
2023/07/29 04:26:36;;;;;;;3.63;2.95;;;15.80;99.90;;;;;;4974639;28;20236;-93
2023/07/29 04:29:23;;;;;;;2.63;2.35;;;15.80;99.90;;;;;;4979797;28;20741;-93
2023/07/29 04:31:50;;;;;;;4.22;2.60;;;15.80;99.90;;;;;;4981592;28;20213;-93
2023/07/29 04:36:58;;;;;;;2.78;2.58;;;15.70;99.90;;;;;;4987183;28;20196;-90
2023/07/29 04:39:25;;;;;;;3.22;2.92;;;15.70;99.90;;;;;;4985595;28;20196;-95
2023/07/29 04:41:54;;;;;;;2.97;2.70;;;15.80;99.90;;;;;;4977709;28;20205;-95
2023/07/29 04:44:21;;;;;;;2.85;2.55;;;15.80;99.90;;;;;;4964921;28;20213;-93
2023/07/29 04:46:47;;;;;;;4.90;2.72;;;15.80;99.90;;;;;;4963607;29;20213;-92
2023/07/29 04:49:14;;;;;;;2.88;2.58;;;15.80;99.90;;;;;;4980551;28;20221;-94
2023/07/29 04:51:41;;;;;;;2.80;2.60;;;15.80;99.90;;;;;;4964377;28;20200;-92
2023/07/29 04:54:08;;;;;;;4.28;2.60;;;15.90;99.90;;;;;;4959822;29;20729;-94
2023/07/29 04:56:35;;;;;;;3.05;2.70;;;15.90;99.90;;;;;;4966184;28;20208;-95
2023/07/29 05:01:44;;;;;;;5.18;2.78;;;16.00;99.90;;;;;;4976283;28;20209;-93
2023/07/29 05:04:11;;;;;;;3.40;2.60;;;16.10;99.90;;;;;;4973466;28;20200;-95
2023/07/29 05:06:38;;;;;;;2.63;2.42;;;16.20;99.90;;;;;;4987098;28;20209;-94
2023/07/29 05:11:55;;;;;;;3.60;2.40;;;16.60;99.90;;;;;;4980700;28;20218;-93
2023/07/29 05:17:05;;;;;;;2.88;2.50;;;17.00;99.90;;;;;;4966298;28;20232;-92
2023/07/29 05:19:32;;;;;;;3.15;2.30;;;17.20;99.90;;;;;;4982606;28;20260;-93
2023/07/29 05:21:59;;;;;;;2.70;2.17;;;17.30;99.90;;;;;;4976514;28;20272;-93
2023/07/29 05:24:26;;;;;;;2.97;2.25;;;17.40;99.90;;;;;;4961017;28;20272;-93
2023/07/29 05:26:53;;;;;;;3.08;2.20;;;17.50;99.90;;;;;;4973693;28;20201;-92
2023/07/29 05:29:20;;;;;;;6.03;2.40;;;17.60;99.90;;;;;;4965646;28;20329;-94
2023/07/29 05:31:48;;;;;;;2.67;2.47;;;17.70;99.90;;;;;;4982728;28;20219;-94
2023/07/29 05:34:15;;;;;;;2.10;1.90;;;17.70;99.90;;;;;;4971035;28;20660;-94
2023/07/29 05:36:41;;;;;;;3.38;2.17;;;17.70;99.90;;;;;;4961755;28;20207;-93
2023/07/29 05:39:08;;;;;;;2.25;2.05;;;17.80;99.90;;;;;;4978628;28;20213;-94
2023/07/29 05:41:35;;;;;;;4.25;2.15;;;17.80;99.90;;;;;;4979058;28;20211;-94
2023/07/29 05:44:02;;;;;;;2.55;2.35;;;17.80;99.90;;;;;;4933413;28;20232;-91
2023/07/29 05:46:29;;;;;;;2.60;2.40;;;17.90;99.90;;;;;;4971848;28;20211;-93
2023/07/29 05:48:57;;;;;;;2.17;1.98;;;18.00;99.90;;;;;;4968552;28;20216;-92
2023/07/29 05:51:24;;;;;;;2.40;2.13;;;18.10;99.90;;;;;;4979034;28;20248;-92
2023/07/29 05:53:51;;;;;;;2.10;1.90;;;18.20;99.90;;;;;;4980915;28;20211;-91
2023/07/29 05:56:18;;;;;;;2.25;2.00;;;18.30;99.90;;;;;;4962007;28;20203;-91
2023/07/29 05:58:45;;;;;;;1.95;1.80;;;18.20;99.90;;;;;;4983588;28;20205;-93
2023/07/29 06:01:12;;;;;;;2.42;2.08;;;18.30;99.90;;;;;;4966899;28;20277;-92
2023/07/29 06:03:39;;;;;;;2.63;1.92;;;18.20;99.90;;;;;;4982428;28;20197;-92
2023/07/29 06:06:08;;;;;;;2.45;2.22;;;18.10;99.90;;;;;;4973922;28;20216;-93
2023/07/29 06:08:35;;;;;;;5.32;2.80;;;17.90;99.90;;;;;;4983164;28;20208;-94
2023/07/29 06:13:37;;;;;;;8.18;2.67;;;17.70;99.90;;;;;;5171197;23;20239;-93
2023/07/29 06:16:07;;;;;;;6.35;3.10;;;17.70;99.90;;;;;;4963049;28;20211;-91
2023/07/29 06:18:35;;;;;;;3.58;2.42;;;17.60;99.90;;;;;;5046773;23;20244;-93
2023/07/29 06:26:13;;;;;;;4.68;2.70;;;17.30;99.90;;;;;;5285136;23;20228;-94
2023/07/29 06:28:42;;;;;;;3.92;2.08;;;17.30;99.90;;;;;;4969258;28;20208;-93
2023/07/29 06:31:09;;;;;;;5.25;2.40;;;17.30;99.90;;;;;;4947504;28;20213;-94
2023/07/29 06:33:40;;;;;;;3.80;2.40;;;17.50;99.90;;;;;;4966686;29;20206;-94
2023/07/29 06:36:06;;;;;;;2.40;2.20;;;17.70;99.90;;;;;;4939002;29;20190;-94
2023/07/29 06:50:12;;;;;;;21.33;18.83;;;18.10;99.90;;;;;;4897328;29;20222;-90
2023/07/29 06:52:40;;;;;;;3.65;3.05;;;18.10;99.90;;;;;;4953779;28;20198;-92
2023/07/29 06:55:08;;;;;;;5.93;5.20;;;18.00;99.90;;;;;;4956166;28;20666;-92
2023/07/29 06:57:35;;;;;;;5.47;4.75;;;17.80;99.90;;;;;;4952184;29;20243;-93
2023/07/29 07:00:04;;;;;;;6.57;3.25;;;17.70;99.90;;;;;;4945761;28;20224;-93
2023/07/29 07:02:30;;;;;;;8.73;5.43;;;17.70;99.90;;;;;;4958556;29;20217;-93
2023/07/29 07:07:38;;;;;;;5.40;3.83;;;17.80;99.90;;;;;;4968071;28;20260;-94
2023/07/29 07:10:06;;;;;;;5.28;3.30;;;17.80;99.90;;;;;;4963945;28;20225;-93
2023/07/29 07:12:33;;;;;;;15.38;9.65;;;17.70;99.90;;;;;;4949503;28;20209;-93
2023/07/29 07:15:01;;;;;;;5.93;4.88;;;17.70;99.90;;;;;;4972222;29;20207;-87
2023/07/29 07:17:37;;;;;;;10.32;8.63;;;17.70;99.90;;;;;;4949235;29;20205;-93
2023/07/29 07:20:07;;;;;;;66.95;59.55;;;17.70;99.90;;;;;;4975574;28;20197;-94
2023/07/29 07:22:34;;;;;;;3.70;2.97;;;17.70;99.90;;;;;;4965032;28;20205;-93
2023/07/29 07:25:01;;;;;;;3.08;2.40;;;17.80;99.90;;;;;;4956386;29;20193;-90
2023/07/29 07:27:28;;;;;;;14.32;12.48;;;17.70;99.90;;;;;;4938209;29;20208;-94
2023/07/29 07:29:54;;;;;;;14.52;9.45;;;17.70;99.90;;;;;;4962653;28;20315;-91
2023/07/29 07:32:22;;;;;;;5.70;4.28;;;17.70;99.90;;;;;;4961767;28;20232;-92
2023/07/29 07:34:50;;;;;;;4.20;2.50;;;17.80;99.90;;;;;;4940262;29;20200;-91
2023/07/29 07:37:17;;;;;;;8.07;6.15;;;17.90;99.90;;;;;;4968513;28;20684;-93
2023/07/29 07:39:44;;;;;;;10.48;7.85;;;17.80;99.90;;;;;;4953957;29;20204;-91
2023/07/29 07:42:11;;;;;;;4.85;3.25;;;17.90;99.90;;;;;;4974375;28;20579;-90
2023/07/29 07:44:38;;;;;;;5.97;3.33;;;17.90;99.90;;;;;;4946654;28;20201;-93
2023/07/29 07:47:05;;;;;;;10.57;6.10;;;18.00;99.90;;;;;;4932654;28;20209;-91
2023/07/29 07:49:32;;;;;;;5.72;3.40;;;18.00;99.90;;;;;;4936369;29;20201;-91
2023/07/29 07:59:46;;;;;;;3.13;2.67;;;18.50;99.90;;;;;;5667680;23;20212;-91
2023/07/29 08:02:13;;;;;;;4.03;3.17;;;18.50;99.90;;;;;;5674708;23;20212;-90
2023/07/29 08:04:40;;;;;;;3.55;2.80;;;18.60;99.90;;;;;;4939798;29;20221;-93
2023/07/29 08:07:07;;;;;;;54.13;48.28;;;18.60;99.90;;;;;;4936239;29;20212;-92
2023/07/29 08:09:34;;;;;;;362.08;324.50;;;18.60;99.90;;;;;;4953036;29;20186;-94
2023/07/29 08:12:01;;;;;;;9.18;6.63;;;18.70;99.90;;;;;;4928473;29;20237;-92
2023/07/29 08:14:28;;;;;;;3.97;2.90;;;18.80;99.90;;;;;;4929948;29;20286;-93
2023/07/29 08:16:56;;;;;;;6.28;3.30;;;18.90;99.90;;;;;;4949101;29;20202;-92
2023/07/29 08:19:23;;;;;;;4.22;3.03;;;19.00;99.90;;;;;;4945402;29;20233;-93
2023/07/29 08:21:51;;;;;;;2.78;2.53;;;19.20;99.90;;;;;;4929677;29;20198;-93
2023/07/29 08:24:17;;;;;;;3.13;2.80;;;19.40;99.90;;;;;;4949188;29;20198;-92
2023/07/29 08:26:45;;;;;;;3.28;2.78;;;19.60;99.90;;;;;;4952735;28;20216;-92
2023/07/29 08:29:12;;;;;;;3.83;2.63;;;19.80;99.90;;;;;;4950567;29;20209;-92
2023/07/29 08:31:40;;;;;;;3.20;2.90;;;19.80;99.90;;;;;;4946256;29;20234;-92
2023/07/29 08:34:09;;;;;;;5.25;3.13;;;20.00;99.90;;;;;;4953599;29;20210;-92
2023/07/29 08:36:36;;;;;;;3.83;2.88;;;20.10;99.90;;;;;;4930007;29;20200;-88
2023/07/29 08:39:03;;;;;;;3.22;2.63;;;20.20;99.90;;;;;;4952056;29;20204;-92
2023/07/29 08:41:36;;;;;;;2.80;2.60;;;20.30;99.90;;;;;;4940985;29;20202;-92
2023/07/29 08:44:08;;;;;;;3.03;2.83;;;20.50;99.80;;;;;;4946060;29;20213;-93
2023/07/29 08:46:35;;;;;;;3.00;2.70;;;20.60;99.70;;;;;;4951203;29;20269;-93
2023/07/29 08:49:03;;;;;;;2.97;2.78;;;20.40;99.10;;;;;;5050441;23;20200;-91
2023/07/29 08:51:42;;;;;;;3.03;2.80;;;20.40;99.50;;;;;;4978621;28;20243;-91
2023/07/29 08:54:11;;;;;;;3.33;2.65;;;20.30;99.40;;;;;;4982492;28;20195;-92
2023/07/29 08:56:39;;;;;;;3.30;3.00;;;20.30;99.90;;;;;;4959607;28;20210;-91
2023/07/29 08:59:06;;;;;;;2.80;2.50;;;20.40;99.90;;;;;;4973871;28;20188;-91
2023/07/29 09:01:33;;;;;;;3.95;3.15;;;20.40;99.90;;;;;;5054659;23;20292;-91
2023/07/29 09:04:00;;;;;;;3.33;3.03;;;20.40;99.90;;;;;;4954057;29;20217;-87
2023/07/29 09:09:05;;;;;;;3.10;2.80;;;20.80;99.90;;;;;;5382323;23;20232;-91
2023/07/29 09:11:34;;;;;;;6.18;3.70;;;20.90;99.90;;;;;;5365726;23;20218;-92
2023/07/29 09:14:01;;;;;;;3.40;3.00;;;21.20;99.40;;;;;;4958380;29;20216;-90
2023/07/29 09:16:28;;;;;;;4.43;2.75;;;21.30;99.20;;;;;;4946123;29;20213;-91
2023/07/29 09:18:57;;;;;;;4.72;2.75;;;21.60;98.90;;;;;;4903352;29;20231;-91
2023/07/29 09:21:26;;;;;;;3.63;2.70;;;22.10;97.90;;;;;;4925490;29;20262;-88
2023/07/29 09:23:53;;;;;;;2.72;2.53;;;22.60;95.00;;;;;;4932499;29;20206;-89
2023/07/29 09:26:25;;;;;;;2.97;2.67;;;23.10;94.90;;;;;;4920702;29;20208;-92
2023/07/29 09:28:53;;;;;;;3.33;3.03;;;23.90;92.60;;;;;;4926232;29;20205;-92
2023/07/29 09:31:21;;;;;;;2.90;2.70;;;25.20;80.30;;;;;;4927676;29;22110;-93
2023/07/29 09:33:48;;;;;;;6.28;3.15;;;25.80;76.70;;;;;;4921454;29;20199;-92
2023/07/29 09:36:16;;;;;;;3.13;2.85;;;26.90;63.60;;;;;;4922611;29;20207;-90
2023/07/29 09:38:45;;;;;;;5.80;3.75;;;27.70;42.90;;;;;;4903804;29;20210;-91
2023/07/29 09:41:14;;;;;;;4.03;3.63;;;27.80;42.80;;;;;;4922109;29;20207;-94
2023/07/29 09:43:42;;;;;;;4.78;3.38;;;28.70;34.90;;;;;;4922541;29;20198;-92
2023/07/29 09:46:09;;;;;;;5.80;3.55;;;29.40;26.50;;;;;;4901187;29;20581;-93
2023/07/29 09:48:41;;;;;;;3.78;3.30;;;28.70;31.00;;;;;;4922427;29;20254;-92
2023/07/29 09:51:12;;;;;;;3.88;3.58;;;28.50;33.00;;;;;;4926266;29;20289;-93
2023/07/29 09:53:44;;;;;;;4.38;3.78;;;28.50;33.20;;;;;;4906830;29;20226;-93
2023/07/29 09:56:11;;;;;;;3.50;3.30;;;28.40;30.90;;;;;;4912805;29;20201;-92
2023/07/29 09:58:39;;;;;;;4.53;3.65;;;27.90;27.80;;;;;;4919771;29;20203;-87
2023/07/29 10:01:07;;;;;;;4.13;3.72;;;27.80;30.20;;;;;;5081868;23;20343;-92
2023/07/29 10:03:38;;;;;;;3.65;3.40;;;27.50;37.80;;;;;;4947079;29;20202;-94
2023/07/29 10:06:08;;;;;;;3.60;3.40;;;27.40;38.90;;;;;;4951618;29;20249;-93
2023/07/29 10:08:38;;;;;;;3.90;3.60;;;27.70;34.50;;;;;;4961642;29;20598;-92
2023/07/29 10:11:08;;;;;;;4.00;3.70;;;27.50;35.50;;;;;;4941434;29;20237;-91
2023/07/29 10:13:36;;;;;;;3.83;3.50;;;27.20;37.60;;;;;;4967789;29;20205;-91
2023/07/29 10:16:04;;;;;;;3.38;3.00;;;26.90;41.50;;;;;;4963155;29;20205;-92
2023/07/29 10:18:34;;;;;;;3.60;3.30;;;26.80;42.40;;;;;;4959305;28;20225;-92
2023/07/29 10:21:02;;;;;;;3.80;3.50;;;26.60;51.50;;;;;;4966019;28;20208;-92
2023/07/29 10:23:33;;;;;;;3.90;3.60;;;26.70;46.80;;;;;;4959714;28;20197;-92
2023/07/29 10:26:04;;;;;;;4.80;3.42;;;26.90;46.10;;;;;;4961406;28;20216;-92
2023/07/29 10:28:32;;;;;;;4.20;3.70;;;27.20;37.70;;;;;;4956274;29;20200;-93
2023/07/29 10:31:00;;;;;;;3.97;3.67;;;27.40;37.70;;;;;;4960289;28;20229;-93
2023/07/29 10:33:27;;;;;;;3.28;3.08;;;28.10;37.80;;;;;;4962006;29;20212;-92
2023/07/29 10:35:56;;;;;;;3.85;3.42;;;28.40;35.80;;;;;;4944653;29;20201;-92
2023/07/29 10:38:25;;;;;;;4.05;3.75;;;28.70;34.80;;;;;;4962162;28;20193;-93
2023/07/29 10:43:37;;;;;;;9.38;8.55;;;29.40;25.80;;;;;;4950133;28;20259;-92
2023/07/29 10:46:17;;;;;;;4.47;4.07;;;29.30;21.70;;;;;;4946597;29;20197;-94
2023/07/29 10:48:45;;;;;;;4.05;3.65;;;29.10;28.50;;;;;;4954293;28;20251;-92
2023/07/29 10:51:36;;;;;;;4.40;3.88;;;28.60;23.20;;;;;;4949497;29;20253;-92
2023/07/29 10:54:04;;;;;;;4.18;3.40;;;28.30;25.80;;;;;;4962898;28;20203;-92
2023/07/29 10:56:32;;;;;;;4.32;3.90;;;28.10;26.90;;;;;;4965006;28;20272;-90
2023/07/29 10:59:20;;;;;;;3.75;3.45;;;28.20;26.50;;;;;;4952058;28;20208;-92
2023/07/29 11:01:53;;;;;;;4.60;4.20;;;28.10;25.10;;;;;;4958987;29;20201;-93
2023/07/29 11:04:27;;;;;;;3.67;3.38;;;27.20;28.50;;;;;;4967130;28;20201;-94
2023/07/29 11:07:26;;;;;;;3.63;3.10;;;27.10;35.20;;;;;;4963173;28;20537;-92
2023/07/29 11:09:58;;;;;;;4.35;3.20;;;27.40;32.70;;;;;;4961364;28;20236;-90
2023/07/29 11:12:45;;;;;;;3.30;3.05;;;27.80;37.30;;;;;;4964793;28;20492;-90
2023/07/29 11:15:17;;;;;;;3.80;3.50;;;27.90;32.10;;;;;;4955403;28;20224;-91
2023/07/29 11:17:47;;;;;;;4.68;3.40;;;27.90;26.70;;;;;;4961666;28;20232;-92
2023/07/29 11:20:15;;;;;;;3.70;3.38;;;27.50;27.60;;;;;;5078654;23;20236;-88
2023/07/29 11:22:43;;;;;;;3.50;3.20;;;27.30;33.50;;;;;;4938501;29;20208;-89
2023/07/29 11:25:13;;;;;;;3.53;3.03;;;26.90;30.30;;;;;;4940626;29;20197;-90
2023/07/29 11:27:40;;;;;;;3.55;3.20;;;26.50;29.00;;;;;;4937981;29;20210;-89
2023/07/29 11:30:11;;;;;;;2.50;2.30;;;26.10;30.30;;;;;;4942632;29;20209;-88
2023/07/29 11:32:40;;;;;;;2.40;2.20;;;25.50;28.70;;;;;;4938768;29;20222;-91
2023/07/29 11:35:09;;;;;;;2.30;2.10;;;24.90;30.80;;;;;;4939504;29;20198;-87
2023/07/29 11:37:36;;;;;;;2.30;2.10;;;24.70;32.00;;;;;;4931223;29;20229;-90
2023/07/29 11:40:06;;;;;;;2.40;2.20;;;24.60;32.90;;;;;;4935885;29;20208;-91
2023/07/29 11:42:36;;;;;;;2.25;2.05;;;25.00;36.20;;;;;;4935953;29;20253;-88
2023/07/29 11:45:06;;;;;;;14.77;13.27;;;25.30;31.50;;;;;;4928458;29;20202;-92
2023/07/29 11:47:35;;;;;;;33.17;30.15;;;25.40;31.20;;;;;;4938272;29;20214;-90
2023/07/29 11:50:03;;;;;;;3.70;2.75;;;25.50;30.90;;;;;;4907068;29;20226;-90
2023/07/29 11:52:31;;;;;;;3.85;2.85;;;25.60;31.60;;;;;;4928696;29;20285;-88
2023/07/29 11:54:59;;;;;;;3.70;3.40;;;25.80;26.80;;;;;;4944477;29;20206;-93
2023/07/29 11:57:32;;;;;;;5.32;3.42;;;25.90;29.20;;;;;;4908335;29;20213;-89
2023/07/29 11:59:58;;;;;;;3.38;2.50;;;25.80;30.00;;;;;;4938745;29;20206;-90
2023/07/29 12:02:26;;;;;;;3.13;2.40;;;25.70;32.40;;;;;;4938508;29;20202;-90
2023/07/29 12:04:54;;;;;;;2.83;2.63;;;25.80;29.20;;;;;;4939556;29;20202;-90
2023/07/29 12:07:21;;;;;;;3.10;2.80;;;26.00;31.30;;;;;;4950600;29;20216;-93
2023/07/29 12:09:51;;;;;;;2.65;2.45;;;26.20;27.60;;;;;;4939312;29;20206;-89
2023/07/29 12:12:18;;;;;;;3.40;2.90;;;26.30;27.40;;;;;;4915757;29;20577;-89
2023/07/29 12:14:48;;;;;;;3.35;2.90;;;26.10;29.00;;;;;;4931188;29;20206;-89
2023/07/29 12:17:16;;;;;;;2.92;2.60;;;26.30;29.10;;;;;;4936833;29;20206;-89
2023/07/29 12:19:43;;;;;;;2.58;2.38;;;26.40;30.70;;;;;;4937744;29;20220;-90
2023/07/29 12:22:11;;;;;;;2.90;2.70;;;26.40;26.90;;;;;;4936423;29;20261;-90
2023/07/29 12:24:40;;;;;;;5.10;3.15;;;26.40;29.80;;;;;;4921011;29;20259;-90
2023/07/29 12:27:12;;;;;;;3.08;2.78;;;26.40;28.70;;;;;;4937779;29;20202;-87
2023/07/29 12:29:43;;;;;;;3.60;2.80;;;26.30;30.50;;;;;;4933133;29;20279;-87
2023/07/29 12:32:12;;;;;;;3.75;3.03;;;26.60;27.50;;;;;;4936399;29;20250;-89
2023/07/29 12:34:40;;;;;;;2.88;2.67;;;26.70;25.50;;;;;;4911357;29;20674;-87
2023/07/29 12:37:07;;;;;;;6.80;2.97;;;26.90;27.50;;;;;;4937155;29;20194;-87
2023/07/29 12:39:36;;;;;;;3.10;2.90;;;27.20;27.00;;;;;;4931029;29;20201;-85
2023/07/29 12:42:05;;;;;;;4.50;3.00;;;27.20;26.00;;;;;;4925197;29;20509;-86
2023/07/29 12:44:33;;;;;;;3.72;3.20;;;26.70;25.50;;;;;;4936927;29;20212;-88
2023/07/29 12:47:02;;;;;;;3.78;2.88;;;26.50;27.00;;;;;;4934776;29;20205;-87
2023/07/29 12:49:33;;;;;;;3.38;2.72;;;26.40;28.00;;;;;;4935711;29;20572;-88
2023/07/29 12:52:01;;;;;;;3.10;2.85;;;26.10;29.90;;;;;;4920705;29;20222;-87
2023/07/29 12:54:28;;;;;;;3.28;2.97;;;25.90;28.30;;;;;;4936198;29;20214;-91
2023/07/29 12:56:55;;;;;;;79.00;70.75;;;25.40;31.20;;;;;;4936115;29;20281;-88
2023/07/29 12:59:22;;;;;;;11.65;10.30;;;25.20;36.30;;;;;;4935490;29;20202;-90
2023/07/29 13:01:49;;;;;;;4.97;4.43;;;24.90;36.20;;;;;;4935288;29;20206;-89
2023/07/29 13:04:16;;;;;;;3.97;2.65;;;24.50;50.30;;;;;;4934979;29;20292;-89
2023/07/29 13:06:45;;;;;;;22.23;19.90;;;24.10;53.50;;;;;;4920888;29;20261;-87
2023/07/29 13:09:12;;;;;;;3.28;2.97;;;23.70;59.20;;;;;;4937092;29;20205;-87
2023/07/29 13:11:39;;;;;;;3.70;3.03;;;23.50;63.60;;;;;;4933320;29;20693;-89
2023/07/29 13:14:06;;;;;;;5.63;4.75;;;23.10;74.60;;;;;;4915753;29;20215;-88
2023/07/29 13:16:33;;;;;;;5.40;4.10;;;22.70;80.20;;;;;;4920924;29;20198;-90
2023/07/29 13:19:00;;;;;;;10.07;7.93;;;22.30;88.30;;;;;;4930889;29;20593;-87
2023/07/29 13:21:27;;;;;;;7.10;4.10;;;21.90;92.60;;;;;;4931712;29;20210;-89
2023/07/29 13:23:55;;;;;;;9.35;4.68;;;21.60;93.60;;;;;;4931618;29;20207;-87
2023/07/29 13:26:21;;;;;;;6.38;3.95;;;21.00;97.40;;;;;;4935086;29;20209;-86
2023/07/29 13:28:48;;;;;;;5.55;3.83;;;20.50;99.00;;;;;;4916789;29;20222;-90
2023/07/29 13:31:15;;;;;;;4.18;3.60;;;20.30;99.70;;;;;;4917697;29;20692;-90
2023/07/29 13:33:42;;;;;;;6.65;3.90;;;20.30;99.80;;;;;;4915441;29;20584;-91
2023/07/29 13:36:09;;;;;;;5.75;3.80;;;20.40;99.90;;;;;;4923854;29;20210;-90
2023/07/29 13:38:36;;;;;;;6.88;3.70;;;20.30;99.90;;;;;;4924225;29;20207;-89
2023/07/29 13:41:06;;;;;;;5.20;4.28;;;20.50;99.90;;;;;;4913506;29;20216;-89
2023/07/29 13:43:33;;;;;;;5.93;4.70;;;20.60;99.90;;;;;;4929509;29;20253;-89
2023/07/29 13:46:00;;;;;;;5.18;4.53;;;20.60;99.90;;;;;;4934696;29;20213;-90
2023/07/29 13:48:28;;;;;;;4.85;4.30;;;20.70;99.90;;;;;;4935316;29;20202;-90
2023/07/29 13:50:55;;;;;;;5.22;4.72;;;20.70;99.90;;;;;;4932449;29;20205;-90
2023/07/29 13:53:22;;;;;;;5.38;3.90;;;20.80;99.90;;;;;;4935385;29;20313;-88
2023/07/29 13:55:49;;;;;;;3.97;3.55;;;20.80;99.90;;;;;;4935043;29;20225;-90
2023/07/29 13:58:20;;;;;;;5.00;4.30;;;20.80;99.90;;;;;;4936716;29;20612;-90